Time;durP1;ratioP1;P1;durP2;ratioP2;P2;SDS_P1;SDS_P2;PMS_P1;PMS_P2;Temp;Humidity;BMP_temperature;BMP_pressure;BME280_temperature;BME280_humidity;BME280_pressure;Samples;Min_cycle;Max_cycle;Signal;HPM_P1;HPM_P2
2021/10/05 00:01:49;;;;;;;1.23;0.80;;;12.00;99.90;;;;;;5013257;28;20511;-79
2021/10/05 00:04:15;;;;;;;1.90;1.80;;;12.00;99.90;;;;;;5013604;28;20849;-79
2021/10/05 00:06:42;;;;;;;2.70;1.33;;;11.90;99.90;;;;;;5013105;28;20470;-80
2021/10/05 00:09:09;;;;;;;2.13;1.23;;;11.90;99.90;;;;;;5013369;28;20463;-79
2021/10/05 00:11:36;;;;;;;1.07;0.67;;;11.90;99.90;;;;;;5013296;28;20470;-84
2021/10/05 00:14:04;;;;;;;2.43;1.77;;;11.90;99.90;;;;;;5013097;28;20448;-84
2021/10/05 00:16:31;;;;;;;2.13;0.90;;;11.90;99.90;;;;;;5013306;28;20447;-84
2021/10/05 00:18:58;;;;;;;0.97;0.90;;;11.90;99.90;;;;;;5013273;28;20448;-84
2021/10/05 00:21:25;;;;;;;3.07;0.70;;;11.90;99.90;;;;;;5012887;28;20483;-84
2021/10/05 00:23:51;;;;;;;0.90;0.63;;;11.90;99.90;;;;;;5013242;28;20451;-84
2021/10/05 00:26:18;;;;;;;2.50;1.57;;;11.90;99.90;;;;;;5014306;28;20454;-84
2021/10/05 00:28:45;;;;;;;1.90;0.90;;;11.90;99.90;;;;;;5016950;28;20447;-84
2021/10/05 00:31:13;;;;;;;1.17;0.93;;;11.80;99.90;;;;;;5016868;28;20470;-84
2021/10/05 00:33:40;;;;;;;3.50;0.97;;;11.90;99.90;;;;;;5016853;28;20455;-84
2021/10/05 00:36:08;;;;;;;1.37;1.23;;;11.80;99.90;;;;;;5016615;28;20451;-84
2021/10/05 00:38:34;;;;;;;0.90;0.70;;;11.80;99.90;;;;;;5016683;28;20958;-84
2021/10/05 00:41:01;;;;;;;1.47;1.37;;;11.80;99.90;;;;;;5016232;28;21031;-84
2021/10/05 00:43:28;;;;;;;3.60;2.50;;;11.80;99.90;;;;;;5016906;28;20455;-84
2021/10/05 00:45:55;;;;;;;3.00;1.03;;;11.80;99.90;;;;;;5016320;28;20490;-84
2021/10/05 00:48:23;;;;;;;3.17;1.30;;;11.80;99.90;;;;;;5016796;28;20915;-84
2021/10/05 00:50:49;;;;;;;2.33;0.93;;;11.80;99.90;;;;;;5016178;28;20451;-84
2021/10/05 00:53:16;;;;;;;1.20;1.20;;;11.80;99.90;;;;;;5016166;28;20970;-84
2021/10/05 00:55:43;;;;;;;1.00;0.50;;;11.70;99.90;;;;;;5016399;28;20459;-84
2021/10/05 00:58:11;;;;;;;1.77;1.67;;;11.70;99.90;;;;;;5016037;28;20458;-83
2021/10/05 01:00:38;;;;;;;1.80;0.90;;;11.70;99.90;;;;;;5015869;28;20990;-84
2021/10/05 01:03:05;;;;;;;5.70;2.37;;;11.70;99.90;;;;;;5016370;28;20520;-83
2021/10/05 01:05:33;;;;;;;2.37;2.00;;;11.60;99.90;;;;;;5016276;28;20451;-84
2021/10/05 01:08:00;;;;;;;5.50;0.97;;;11.60;99.90;;;;;;5016492;28;20458;-83
2021/10/05 01:10:27;;;;;;;1.03;1.03;;;11.60;99.90;;;;;;5016079;28;20479;-84
2021/10/05 01:12:54;;;;;;;0.60;0.60;;;11.50;99.90;;;;;;5015807;28;20927;-83
2021/10/05 01:15:24;;;;;;;1.67;0.67;;;11.50;99.90;;;;;;5015744;28;20986;-83
2021/10/05 01:17:52;;;;;;;0.60;0.40;;;11.50;99.90;;;;;;5015656;28;21027;-83
2021/10/05 01:20:19;;;;;;;1.03;0.60;;;11.50;99.90;;;;;;5015907;28;20472;-83
2021/10/05 01:22:47;;;;;;;0.67;0.67;;;11.50;99.90;;;;;;5015576;28;20483;-83
2021/10/05 01:25:16;;;;;;;1.07;0.60;;;11.50;99.90;;;;;;5015879;28;20439;-84
2021/10/05 01:27:44;;;;;;;2.07;0.83;;;11.50;99.90;;;;;;5015830;28;20448;-83
2021/10/05 01:30:12;;;;;;;0.90;0.50;;;11.50;99.90;;;;;;5015449;28;20467;-83
2021/10/05 01:32:38;;;;;;;2.27;0.77;;;11.40;99.90;;;;;;5015689;28;20452;-84
2021/10/05 01:35:07;;;;;;;2.60;0.90;;;11.30;99.90;;;;;;5015351;28;20447;-83
2021/10/05 01:37:34;;;;;;;1.90;1.07;;;11.30;99.90;;;;;;5014359;28;20447;-83
2021/10/05 01:40:04;;;;;;;2.43;0.67;;;11.30;99.90;;;;;;5015215;28;20471;-83
2021/10/05 01:42:31;;;;;;;4.10;0.40;;;11.30;99.90;;;;;;5015430;28;20487;-83
2021/10/05 01:44:58;;;;;;;2.60;1.43;;;11.40;99.90;;;;;;5015146;28;20970;-83
2021/10/05 01:47:25;;;;;;;0.63;0.63;;;11.40;99.90;;;;;;5015234;28;20494;-84
2021/10/05 01:49:51;;;;;;;1.47;0.70;;;11.40;99.90;;;;;;5014936;28;20465;-83
2021/10/05 01:52:18;;;;;;;1.43;0.50;;;11.50;99.90;;;;;;5015005;28;20454;-83
2021/10/05 01:54:45;;;;;;;1.80;1.07;;;11.50;99.90;;;;;;5015307;28;20447;-83
2021/10/05 01:57:13;;;;;;;1.37;0.73;;;11.50;99.90;;;;;;5015015;28;20447;-82
2021/10/05 01:59:40;;;;;;;1.17;0.70;;;11.50;99.90;;;;;;5015358;28;20447;-82
2021/10/05 02:02:07;;;;;;;0.70;0.60;;;11.50;99.90;;;;;;5015230;28;20498;-83
2021/10/05 02:04:34;;;;;;;2.47;2.27;;;11.50;99.90;;;;;;5015083;28;20443;-83
2021/10/05 02:07:01;;;;;;;1.93;1.10;;;11.50;99.90;;;;;;5014823;28;20443;-84
2021/10/05 02:09:28;;;;;;;3.90;1.23;;;11.50;99.90;;;;;;5014920;28;20444;-83
2021/10/05 02:11:55;;;;;;;4.73;0.80;;;11.40;99.90;;;;;;5014643;28;20467;-83
2021/10/05 02:14:23;;;;;;;0.63;0.63;;;11.40;99.90;;;;;;5014969;28;20462;-83
2021/10/05 02:16:50;;;;;;;1.70;0.60;;;11.40;99.90;;;;;;5014983;28;20436;-83
2021/10/05 02:19:17;;;;;;;1.77;0.80;;;11.40;99.90;;;;;;5014836;28;20452;-83
2021/10/05 02:21:43;;;;;;;1.03;0.90;;;11.50;99.90;;;;;;5014674;28;20555;-82
2021/10/05 02:26:57;;;;;;;1.50;1.40;;;11.50;99.90;;;;;;5014855;28;20443;-83
2021/10/05 02:29:26;;;;;;;1.17;0.83;;;11.50;99.90;;;;;;5014324;28;20459;-82
2021/10/05 02:31:52;;;;;;;0.83;0.43;;;11.50;99.90;;;;;;5014589;28;20466;-82
2021/10/05 02:34:20;;;;;;;2.93;2.10;;;11.50;99.90;;;;;;5014262;28;20974;-83
2021/10/05 02:36:47;;;;;;;1.83;0.60;;;11.50;99.90;;;;;;5014509;28;20455;-83
2021/10/05 02:39:14;;;;;;;1.60;1.60;;;11.60;99.90;;;;;;5014479;28;20629;-82
2021/10/05 02:41:41;;;;;;;2.10;1.20;;;11.60;99.90;;;;;;5014042;28;20483;-83
2021/10/05 02:44:08;;;;;;;1.73;0.80;;;11.60;99.90;;;;;;5014440;28;20452;-82
2021/10/05 02:46:36;;;;;;;2.63;1.33;;;11.60;99.90;;;;;;5013974;28;20849;-82
2021/10/05 02:49:04;;;;;;;3.73;0.73;;;11.60;99.90;;;;;;5013701;28;20810;-82
2021/10/05 02:51:31;;;;;;;2.40;0.80;;;11.50;99.90;;;;;;5014189;28;20494;-82
2021/10/05 02:53:58;;;;;;;0.93;0.77;;;11.60;99.90;;;;;;5014258;28;20463;-82
2021/10/05 02:56:25;;;;;;;1.03;0.60;;;11.60;99.90;;;;;;5013883;28;20448;-81
2021/10/05 02:58:51;;;;;;;3.37;1.23;;;11.60;99.90;;;;;;5014020;28;20969;-82
2021/10/05 03:01:18;;;;;;;1.23;0.57;;;11.60;99.90;;;;;;5014301;28;20464;-82
2021/10/05 03:03:46;;;;;;;0.77;0.50;;;11.60;99.90;;;;;;5014092;28;20452;-81
2021/10/05 03:06:13;;;;;;;1.27;1.10;;;11.60;99.90;;;;;;5014041;28;20451;-82
2021/10/05 03:08:42;;;;;;;0.50;0.50;;;11.50;99.90;;;;;;5014016;28;20459;-81
2021/10/05 03:11:09;;;;;;;1.00;0.97;;;11.50;99.90;;;;;;5013916;28;20480;-81
2021/10/05 03:13:36;;;;;;;1.07;0.47;;;11.50;99.90;;;;;;5013714;28;20462;-82
2021/10/05 03:16:03;;;;;;;0.47;0.40;;;11.60;99.90;;;;;;5013912;28;20448;-82
2021/10/05 03:18:30;;;;;;;2.53;1.00;;;11.50;99.90;;;;;;5013855;28;20482;-82
2021/10/05 03:20:58;;;;;;;1.67;0.83;;;11.50;99.90;;;;;;5013918;28;20467;-81
2021/10/05 03:23:25;;;;;;;2.13;1.00;;;11.50;99.90;;;;;;5013743;28;20495;-81
2021/10/05 03:25:52;;;;;;;2.10;0.77;;;11.50;99.90;;;;;;5013759;28;20459;-82
2021/10/05 03:28:19;;;;;;;1.53;0.50;;;11.50;99.90;;;;;;5013754;28;20455;-81
2021/10/05 03:30:45;;;;;;;1.27;0.80;;;11.60;99.90;;;;;;5013642;28;20475;-82
2021/10/05 03:33:12;;;;;;;2.93;0.93;;;11.60;99.90;;;;;;5013374;28;20944;-81
2021/10/05 03:35:39;;;;;;;1.17;1.07;;;11.60;99.90;;;;;;5013369;28;20947;-82
2021/10/05 03:38:07;;;;;;;0.60;0.60;;;11.60;99.90;;;;;;5013364;28;20931;-82
2021/10/05 03:40:34;;;;;;;1.03;0.43;;;11.50;99.90;;;;;;5013563;28;20463;-81
2021/10/05 03:43:00;;;;;;;0.40;0.33;;;11.50;99.90;;;;;;5013488;28;20841;-81
2021/10/05 03:45:28;;;;;;;0.63;0.63;;;11.60;99.90;;;;;;5013352;28;20490;-81
2021/10/05 03:47:54;;;;;;;1.17;0.50;;;11.60;99.90;;;;;;5013608;28;20475;-82
2021/10/05 03:50:21;;;;;;;7.97;1.30;;;11.60;99.90;;;;;;5013477;28;20476;-81
2021/10/05 03:52:48;;;;;;;2.20;1.07;;;11.60;99.90;;;;;;5013523;28;20534;-82
2021/10/05 03:55:16;;;;;;;0.50;0.43;;;11.60;99.90;;;;;;5013351;28;20455;-81
2021/10/05 03:57:43;;;;;;;0.83;0.40;;;11.60;99.90;;;;;;5013474;28;20451;-82
2021/10/05 04:00:11;;;;;;;1.03;0.97;;;11.60;99.90;;;;;;5013320;28;20824;-81
2021/10/05 04:02:38;;;;;;;0.63;0.50;;;11.60;99.90;;;;;;5016753;28;20471;-81
2021/10/05 04:05:05;;;;;;;0.60;0.60;;;11.50;99.90;;;;;;5017344;28;20455;-82
2021/10/05 04:07:32;;;;;;;1.10;1.00;;;11.50;99.90;;;;;;5017317;28;20451;-80
2021/10/05 04:09:59;;;;;;;0.50;0.50;;;11.50;99.90;;;;;;5017238;28;20467;-81
2021/10/05 04:12:27;;;;;;;1.17;0.63;;;11.50;99.90;;;;;;5016914;28;20934;-81
2021/10/05 04:14:54;;;;;;;1.33;0.80;;;11.50;99.90;;;;;;5016884;28;20436;-81
2021/10/05 04:17:20;;;;;;;0.70;0.30;;;11.40;99.90;;;;;;5017517;28;20412;-81
2021/10/05 04:19:47;;;;;;;0.97;0.70;;;11.40;99.90;;;;;;5016714;28;20822;-81
2021/10/05 04:22:14;;;;;;;0.93;0.50;;;11.40;99.90;;;;;;5017185;28;20476;-81
2021/10/05 04:24:41;;;;;;;0.70;0.70;;;11.40;99.90;;;;;;5016993;28;20447;-81
2021/10/05 04:27:10;;;;;;;5.03;2.03;;;11.40;99.90;;;;;;5016943;28;20447;-81
2021/10/05 04:29:39;;;;;;;3.13;1.10;;;11.40;99.90;;;;;;5016787;28;20478;-82
2021/10/05 04:32:07;;;;;;;0.50;0.50;;;11.40;99.90;;;;;;5016844;28;20447;-80
2021/10/05 04:34:34;;;;;;;0.93;0.50;;;11.30;99.90;;;;;;5016841;28;20459;-82
2021/10/05 04:37:01;;;;;;;1.23;0.70;;;11.40;99.90;;;;;;5016575;28;20442;-82
2021/10/05 04:39:28;;;;;;;1.30;1.20;;;11.40;99.90;;;;;;5016410;28;20455;-81
2021/10/05 04:41:55;;;;;;;1.00;0.93;;;11.40;99.90;;;;;;5016515;28;20480;-81
2021/10/05 04:44:22;;;;;;;2.40;1.17;;;11.40;99.90;;;;;;5017448;28;20454;-81
2021/10/05 04:46:50;;;;;;;0.80;0.60;;;11.40;99.90;;;;;;5016379;28;20506;-81
2021/10/05 04:49:17;;;;;;;2.47;0.53;;;11.50;99.90;;;;;;5016554;28;20452;-81
2021/10/05 04:51:43;;;;;;;1.47;1.37;;;11.50;99.90;;;;;;5016420;28;20478;-81
2021/10/05 04:54:10;;;;;;;1.10;1.10;;;11.50;99.90;;;;;;5016383;28;20447;-81
2021/10/05 04:56:37;;;;;;;1.37;0.67;;;11.40;99.90;;;;;;5016388;28;20806;-82
2021/10/05 04:59:04;;;;;;;0.40;0.40;;;11.40;99.90;;;;;;5016136;28;20943;-82
2021/10/05 05:01:31;;;;;;;2.10;0.77;;;11.40;99.90;;;;;;5016266;28;20468;-82
2021/10/05 05:03:59;;;;;;;1.53;1.53;;;11.40;99.90;;;;;;5016179;28;20487;-82
2021/10/05 05:06:26;;;;;;;0.40;0.40;;;11.50;99.90;;;;;;5015957;28;20443;-82
2021/10/05 05:08:53;;;;;;;1.90;0.83;;;11.50;99.90;;;;;;5016242;28;20451;-82
2021/10/05 05:11:19;;;;;;;1.60;1.50;;;11.50;99.90;;;;;;5016019;28;20475;-82
2021/10/05 05:13:46;;;;;;;1.10;1.00;;;11.50;99.90;;;;;;5015785;28;20793;-82
2021/10/05 05:16:13;;;;;;;0.63;0.60;;;11.50;99.90;;;;;;5016058;28;20435;-82
2021/10/05 05:18:40;;;;;;;2.33;2.23;;;11.50;99.90;;;;;;5015992;28;20447;-81
2021/10/05 05:21:08;;;;;;;2.73;0.50;;;11.50;99.90;;;;;;5015756;28;20869;-82
2021/10/05 05:23:34;;;;;;;0.40;0.40;;;11.50;99.90;;;;;;5015994;28;20483;-81
2021/10/05 05:26:01;;;;;;;0.43;0.43;;;11.50;99.90;;;;;;5015788;28;20452;-81
2021/10/05 05:28:28;;;;;;;1.60;0.83;;;11.50;99.90;;;;;;5015736;28;20471;-81
2021/10/05 05:30:55;;;;;;;0.80;0.80;;;11.50;99.90;;;;;;5015659;28;20487;-81
2021/10/05 05:33:22;;;;;;;1.07;0.83;;;11.50;99.90;;;;;;5015580;28;20440;-80
2021/10/05 05:35:49;;;;;;;1.10;1.10;;;11.50;99.90;;;;;;5015357;28;20451;-77
2021/10/05 05:38:18;;;;;;;1.90;1.47;;;11.50;99.90;;;;;;5015549;28;20440;-77
2021/10/05 05:40:45;;;;;;;1.47;1.37;;;11.50;99.90;;;;;;5015531;28;20480;-77
2021/10/05 05:43:12;;;;;;;2.33;0.70;;;11.50;99.90;;;;;;5015184;28;21006;-78
2021/10/05 05:45:38;;;;;;;1.03;0.93;;;11.50;99.90;;;;;;5015315;28;20480;-78
2021/10/05 05:48:05;;;;;;;0.97;0.90;;;11.40;99.90;;;;;;5015507;28;20444;-79
2021/10/05 05:50:32;;;;;;;1.73;0.90;;;11.40;99.90;;;;;;5014988;28;20845;-79
2021/10/05 05:52:59;;;;;;;1.40;0.70;;;11.50;99.90;;;;;;5015091;28;20458;-80
2021/10/05 05:55:27;;;;;;;1.00;0.77;;;11.40;99.90;;;;;;5015307;28;20452;-79
2021/10/05 05:57:54;;;;;;;1.70;0.73;;;11.40;99.90;;;;;;5015141;28;20462;-79
2021/10/05 06:00:22;;;;;;;0.80;0.40;;;11.40;99.90;;;;;;5015400;28;20498;-79
2021/10/05 06:02:49;;;;;;;1.90;1.80;;;11.50;99.90;;;;;;5015106;28;20487;-79
2021/10/05 06:05:15;;;;;;;0.80;0.50;;;11.50;99.90;;;;;;5015115;28;20449;-80
2021/10/05 06:07:43;;;;;;;0.60;0.60;;;11.50;99.90;;;;;;5014948;28;20439;-81
2021/10/05 06:10:10;;;;;;;1.03;1.03;;;11.50;99.90;;;;;;5014734;28;20463;-81
2021/10/05 06:12:39;;;;;;;0.87;0.43;;;11.60;99.90;;;;;;5015159;28;20514;-81
2021/10/05 06:15:12;;;;;;;0.77;0.77;;;11.60;99.90;;;;;;5015023;28;20455;-81
2021/10/05 06:17:40;;;;;;;3.27;0.90;;;11.60;99.90;;;;;;5014641;28;20436;-81
2021/10/05 06:20:08;;;;;;;0.50;0.40;;;11.60;99.90;;;;;;5014814;28;20882;-81
2021/10/05 06:22:36;;;;;;;2.73;0.60;;;11.60;99.90;;;;;;5014744;28;20447;-80
2021/10/05 06:25:03;;;;;;;1.20;1.00;;;11.60;99.90;;;;;;5013846;28;20436;-81
2021/10/05 06:27:30;;;;;;;0.47;0.30;;;11.60;99.90;;;;;;5014732;28;20456;-80
2021/10/05 06:29:59;;;;;;;1.73;0.50;;;11.60;99.90;;;;;;5014865;28;20447;-80
2021/10/05 06:32:26;;;;;;;0.77;0.60;;;11.60;99.90;;;;;;5014651;28;20522;-80
2021/10/05 06:34:53;;;;;;;0.70;0.70;;;11.60;99.90;;;;;;5014294;28;21055;-80
2021/10/05 06:37:20;;;;;;;0.67;0.40;;;11.60;99.90;;;;;;5014826;28;20440;-79
2021/10/05 06:39:47;;;;;;;0.63;0.63;;;11.60;99.90;;;;;;5014455;28;20479;-80
2021/10/05 06:42:13;;;;;;;1.37;1.37;;;11.60;99.90;;;;;;5014477;28;20458;-79
2021/10/05 06:44:41;;;;;;;1.97;1.23;;;11.60;99.90;;;;;;5014271;28;20492;-79
2021/10/05 06:47:09;;;;;;;1.90;1.23;;;11.60;99.90;;;;;;5013995;28;20475;-79
2021/10/05 06:49:36;;;;;;;1.30;1.30;;;11.60;99.90;;;;;;5014007;28;20962;-79
2021/10/05 06:52:04;;;;;;;0.60;0.60;;;11.60;99.90;;;;;;5013992;28;20448;-80
2021/10/05 06:54:31;;;;;;;0.87;0.87;;;11.70;99.90;;;;;;5014001;28;20466;-80
2021/10/05 06:56:58;;;;;;;2.00;1.80;;;11.70;99.90;;;;;;5014222;28;20451;-81
2021/10/05 06:59:25;;;;;;;0.70;0.70;;;11.60;99.90;;;;;;5013894;28;20966;-80
2021/10/05 07:01:52;;;;;;;1.27;0.40;;;11.70;99.90;;;;;;5014102;28;20478;-80
2021/10/05 07:04:20;;;;;;;2.33;2.13;;;11.70;99.90;;;;;;5014037;28;20488;-81
2021/10/05 07:06:47;;;;;;;2.03;0.43;;;11.70;99.90;;;;;;5014123;28;20523;-79
2021/10/05 07:09:13;;;;;;;0.67;0.67;;;11.70;99.90;;;;;;5013723;28;20939;-79
2021/10/05 07:11:40;;;;;;;0.90;0.90;;;11.70;99.90;;;;;;5013930;28;20467;-79
2021/10/05 07:14:07;;;;;;;0.80;0.60;;;11.70;99.90;;;;;;5013983;28;20446;-79
2021/10/05 07:16:34;;;;;;;0.30;0.30;;;11.70;99.90;;;;;;5013949;28;20523;-78
2021/10/05 07:19:00;;;;;;;1.03;0.60;;;11.70;99.90;;;;;;5013668;28;20462;-78
2021/10/05 07:21:28;;;;;;;2.00;0.47;;;11.80;99.90;;;;;;5013778;28;20468;-79
2021/10/05 07:23:55;;;;;;;0.87;0.60;;;11.80;99.90;;;;;;5013458;28;20494;-80
2021/10/05 07:26:22;;;;;;;2.23;0.63;;;11.80;99.90;;;;;;5013778;28;20451;-80
2021/10/05 07:28:49;;;;;;;0.60;0.50;;;11.90;99.90;;;;;;5013486;28;20439;-80
2021/10/05 07:31:16;;;;;;;0.57;0.40;;;11.90;99.90;;;;;;5013680;28;20482;-80
2021/10/05 07:33:43;;;;;;;1.00;1.00;;;12.00;99.90;;;;;;5013688;28;20447;-80
2021/10/05 07:36:10;;;;;;;0.50;0.50;;;12.00;99.90;;;;;;5013286;28;20947;-80
2021/10/05 07:38:39;;;;;;;0.77;0.40;;;12.00;99.90;;;;;;5013696;28;20462;-77
2021/10/05 07:41:06;;;;;;;2.47;0.70;;;12.10;99.90;;;;;;5013225;28;20987;-78
2021/10/05 07:43:33;;;;;;;1.10;1.03;;;12.10;99.90;;;;;;5013630;28;20479;-77
2021/10/05 07:46:00;;;;;;;2.20;0.63;;;12.00;99.90;;;;;;5013294;28;20479;-79
2021/10/05 07:48:27;;;;;;;1.57;0.63;;;12.10;99.90;;;;;;5013507;28;20456;-79
2021/10/05 07:50:55;;;;;;;1.10;0.57;;;12.10;99.90;;;;;;5013483;28;20482;-79
2021/10/05 07:53:21;;;;;;;0.50;0.40;;;12.10;99.90;;;;;;5013568;28;20443;-79
2021/10/05 07:55:50;;;;;;;1.13;0.60;;;12.10;99.90;;;;;;5013643;28;20455;-80
2021/10/05 07:58:16;;;;;;;0.40;0.30;;;12.20;99.90;;;;;;5013258;28;20439;-79
2021/10/05 08:00:43;;;;;;;1.33;0.60;;;12.20;99.90;;;;;;5013745;28;20472;-79
2021/10/05 08:03:10;;;;;;;0.93;0.30;;;12.20;99.90;;;;;;5013171;28;20467;-81
2021/10/05 08:05:37;;;;;;;0.50;0.50;;;12.20;99.90;;;;;;5013196;28;20470;-81
2021/10/05 08:08:07;;;;;;;0.83;0.83;;;12.20;99.90;;;;;;5013441;28;20911;-80
2021/10/05 08:10:34;;;;;;;0.30;0.30;;;12.20;99.90;;;;;;5013253;28;20475;-80
2021/10/05 08:13:03;;;;;;;2.73;0.60;;;12.20;99.90;;;;;;5013387;28;20435;-81
2021/10/05 08:15:30;;;;;;;0.83;0.50;;;12.30;99.90;;;;;;5013085;28;20435;-81
2021/10/05 08:17:57;;;;;;;1.17;0.50;;;12.30;99.90;;;;;;5013627;28;20432;-80
2021/10/05 08:20:24;;;;;;;2.67;1.20;;;12.40;99.90;;;;;;5013494;28;20474;-80
2021/10/05 08:22:51;;;;;;;2.37;1.20;;;12.40;99.90;;;;;;5013241;28;20455;-81
2021/10/05 08:25:18;;;;;;;1.07;0.93;;;12.40;99.90;;;;;;5013251;28;20475;-78
2021/10/05 08:27:46;;;;;;;1.40;0.50;;;12.40;99.90;;;;;;5012934;28;20443;-78
2021/10/05 08:30:15;;;;;;;1.77;1.67;;;12.50;99.90;;;;;;5012905;28;20475;-77
2021/10/05 08:32:42;;;;;;;0.60;0.50;;;12.50;99.90;;;;;;5013244;28;20431;-77
2021/10/05 08:35:10;;;;;;;2.60;1.57;;;12.50;99.90;;;;;;5013313;28;20904;-76
2021/10/05 08:37:37;;;;;;;0.90;0.90;;;12.40;99.90;;;;;;5013013;28;20824;-76
2021/10/05 08:40:07;;;;;;;0.70;0.70;;;12.40;99.90;;;;;;5012759;28;20476;-77
2021/10/05 08:42:34;;;;;;;1.50;1.07;;;12.40;99.90;;;;;;5012891;28;20419;-81
2021/10/05 08:45:02;;;;;;;1.07;0.87;;;12.40;99.90;;;;;;5012954;28;20471;-81
2021/10/05 08:47:30;;;;;;;0.50;0.40;;;12.60;99.90;;;;;;5013960;28;20484;-80
2021/10/05 08:49:57;;;;;;;2.20;0.70;;;12.60;99.90;;;;;;5016528;28;20458;-81
2021/10/05 08:52:24;;;;;;;0.60;0.60;;;12.70;99.90;;;;;;5016331;28;20416;-81
2021/10/05 08:54:51;;;;;;;0.70;0.50;;;12.70;99.90;;;;;;5016213;28;20907;-81
2021/10/05 08:57:18;;;;;;;0.97;0.60;;;12.60;99.90;;;;;;5016488;28;20431;-77
2021/10/05 08:59:45;;;;;;;0.80;0.80;;;12.60;99.90;;;;;;5016327;28;20428;-77
2021/10/05 09:02:13;;;;;;;1.37;0.60;;;12.60;99.90;;;;;;5016092;28;20446;-77
2021/10/05 09:04:43;;;;;;;3.60;0.60;;;12.50;99.90;;;;;;5016251;28;20557;-78
2021/10/05 09:07:17;;;;;;;0.57;0.30;;;12.50;99.90;;;;;;5016065;28;20447;-80
2021/10/05 09:10:03;;;;;;;3.80;0.60;;;12.60;99.90;;;;;;5016959;28;20740;-80
2021/10/05 09:12:32;;;;;;;0.70;0.60;;;12.70;99.90;;;;;;5015907;28;20428;-80
2021/10/05 09:15:01;;;;;;;0.60;0.60;;;12.80;99.90;;;;;;5015872;28;20434;-80
2021/10/05 09:17:30;;;;;;;1.13;0.40;;;12.90;99.90;;;;;;5016494;28;20443;-80
2021/10/05 09:19:59;;;;;;;2.00;0.70;;;13.00;99.90;;;;;;5016001;28;20430;-79
2021/10/05 09:22:28;;;;;;;1.23;0.40;;;13.00;99.90;;;;;;5016076;28;20448;-79
2021/10/05 09:24:57;;;;;;;1.43;0.80;;;13.00;99.90;;;;;;5016419;28;20617;-79
2021/10/05 09:27:25;;;;;;;1.13;0.73;;;13.00;99.90;;;;;;5015716;28;20462;-79
2021/10/05 09:29:53;;;;;;;0.63;0.33;;;13.00;99.90;;;;;;5015425;28;20931;-79
2021/10/05 09:32:22;;;;;;;0.50;0.47;;;13.00;99.90;;;;;;5015596;28;20490;-78
2021/10/05 09:34:51;;;;;;;1.63;0.50;;;13.00;99.90;;;;;;5016001;28;20440;-78
2021/10/05 09:37:21;;;;;;;0.50;0.50;;;13.00;99.90;;;;;;5015684;28;20475;-78
2021/10/05 09:39:50;;;;;;;0.40;0.30;;;13.00;99.90;;;;;;5015520;28;20435;-78
2021/10/05 09:42:22;;;;;;;0.97;0.40;;;13.10;99.90;;;;;;5015560;28;20471;-78
2021/10/05 09:44:58;;;;;;;0.40;0.37;;;13.30;99.90;;;;;;5015164;28;20839;-78
2021/10/05 09:47:34;;;;;;;0.70;0.70;;;13.50;99.90;;;;;;5015277;28;21009;-78
2021/10/05 09:50:01;;;;;;;1.17;0.60;;;13.80;99.90;;;;;;5015064;28;20491;-77
2021/10/05 09:52:43;;;;;;;0.50;0.30;;;14.10;99.90;;;;;;5015489;28;20428;-77
2021/10/05 09:55:10;;;;;;;0.40;0.40;;;14.20;99.90;;;;;;5015419;28;20426;-77
2021/10/05 09:57:38;;;;;;;0.43;0.37;;;14.20;99.90;;;;;;5015356;28;20447;-77
2021/10/05 10:00:07;;;;;;;0.50;0.50;;;14.10;99.90;;;;;;5014025;28;20484;-77
2021/10/05 10:02:37;;;;;;;0.53;0.53;;;13.90;99.90;;;;;;5014942;28;20810;-77
2021/10/05 10:05:06;;;;;;;0.50;0.40;;;13.80;99.90;;;;;;5015151;28;20527;-77
2021/10/05 10:07:36;;;;;;;1.00;0.80;;;13.70;99.90;;;;;;5015117;28;20483;-78
2021/10/05 10:10:07;;;;;;;1.23;1.13;;;13.70;99.90;;;;;;5015038;28;20471;-78
2021/10/05 10:12:34;;;;;;;0.97;0.60;;;13.60;99.90;;;;;;5015173;28;20439;-80
2021/10/05 10:15:03;;;;;;;0.83;0.40;;;13.50;99.90;;;;;;5015001;28;20438;-79
2021/10/05 10:17:31;;;;;;;0.47;0.30;;;13.60;99.90;;;;;;5015346;28;20860;-78
2021/10/05 10:19:58;;;;;;;0.37;0.33;;;13.60;99.90;;;;;;5014886;28;20541;-79
2021/10/05 10:22:28;;;;;;;0.47;0.40;;;13.50;99.90;;;;;;5014862;28;20446;-79
2021/10/05 10:25:04;;;;;;;0.77;0.50;;;13.60;99.90;;;;;;5014667;28;20484;-78
2021/10/05 10:27:47;;;;;;;0.83;0.50;;;13.60;99.90;;;;;;5014708;28;20432;-78
2021/10/05 10:30:15;;;;;;;0.30;0.30;;;13.60;99.90;;;;;;5014563;28;20455;-78
2021/10/05 10:32:45;;;;;;;1.97;0.90;;;13.60;99.90;;;;;;5014352;28;20543;-77
2021/10/05 10:35:13;;;;;;;0.50;0.50;;;13.70;99.90;;;;;;5014547;28;20432;-78
2021/10/05 10:37:44;;;;;;;0.40;0.40;;;13.70;99.90;;;;;;5014587;28;20890;-78
2021/10/05 10:40:12;;;;;;;0.40;0.40;;;13.90;99.90;;;;;;5015240;28;20476;-77
2021/10/05 10:42:40;;;;;;;1.83;0.43;;;13.90;99.90;;;;;;5014520;28;20540;-77
2021/10/05 10:45:15;;;;;;;0.70;0.37;;;14.00;99.90;;;;;;5014209;28;20467;-78
2021/10/05 10:47:44;;;;;;;0.80;0.80;;;14.00;99.90;;;;;;5014133;28;20872;-78
2021/10/05 10:50:13;;;;;;;0.50;0.50;;;14.00;99.90;;;;;;5014523;28;20468;-78
2021/10/05 10:52:43;;;;;;;0.43;0.43;;;14.10;99.90;;;;;;5014341;28;20444;-78
2021/10/05 10:55:12;;;;;;;0.40;0.30;;;14.00;99.90;;;;;;5014275;28;20439;-77
2021/10/05 10:57:43;;;;;;;0.50;0.40;;;13.80;99.90;;;;;;5013932;28;20444;-79
2021/10/05 11:00:19;;;;;;;0.50;0.50;;;13.70;99.90;;;;;;5014140;28;20477;-79
2021/10/05 11:02:48;;;;;;;0.50;0.50;;;13.70;99.90;;;;;;5014251;28;20458;-79
2021/10/05 11:05:17;;;;;;;1.03;0.93;;;13.70;99.90;;;;;;5013908;28;20474;-79
2021/10/05 11:07:44;;;;;;;0.60;0.60;;;13.70;99.90;;;;;;5014374;28;20443;-78
2021/10/05 11:10:11;;;;;;;1.43;0.60;;;13.70;99.90;;;;;;5011822;28;20475;-79
2021/10/05 11:12:48;;;;;;;0.30;0.30;;;13.70;99.90;;;;;;5013937;28;20442;-79
2021/10/05 11:15:16;;;;;;;2.53;0.40;;;13.70;99.90;;;;;;5013852;28;20431;-79
2021/10/05 11:17:44;;;;;;;0.57;0.40;;;13.90;99.90;;;;;;5013905;28;20439;-79
2021/10/05 11:20:12;;;;;;;1.17;0.43;;;14.00;99.90;;;;;;5013772;28;20479;-79
2021/10/05 11:22:39;;;;;;;0.37;0.33;;;14.00;99.90;;;;;;5013604;28;20789;-79
2021/10/05 11:25:05;;;;;;;0.30;0.30;;;14.20;99.90;;;;;;5013714;28;20472;-79
2021/10/05 11:27:34;;;;;;;0.40;0.40;;;14.30;99.90;;;;;;5013697;28;20432;-79
2021/10/05 11:30:05;;;;;;;0.40;0.30;;;14.30;99.90;;;;;;5013652;28;21009;-79
2021/10/05 11:32:33;;;;;;;0.40;0.30;;;14.30;99.90;;;;;;5013704;28;20436;-79
2021/10/05 11:35:01;;;;;;;0.40;0.30;;;14.20;99.90;;;;;;5013746;28;20857;-79
2021/10/05 11:37:28;;;;;;;0.50;0.40;;;14.30;99.90;;;;;;5013668;28;20435;-79
2021/10/05 11:39:57;;;;;;;0.30;0.30;;;14.30;99.90;;;;;;5013318;28;20416;-79
2021/10/05 11:42:25;;;;;;;0.30;0.30;;;14.40;99.90;;;;;;5013524;28;20444;-79
2021/10/05 11:44:55;;;;;;;0.30;0.30;;;14.40;99.90;;;;;;5013168;28;21010;-79
2021/10/05 11:47:25;;;;;;;0.30;0.30;;;14.40;99.90;;;;;;5013250;28;20851;-80
2021/10/05 11:49:57;;;;;;;0.30;0.30;;;14.30;99.90;;;;;;5013307;28;20806;-79
2021/10/05 11:52:25;;;;;;;0.40;0.40;;;14.30;99.90;;;;;;5013476;28;20451;-80
2021/10/05 11:54:53;;;;;;;0.50;0.30;;;14.30;99.90;;;;;;5013460;28;20436;-79
2021/10/05 11:57:22;;;;;;;0.77;0.33;;;14.40;99.90;;;;;;5013199;28;20432;-80
2021/10/05 11:59:49;;;;;;;0.70;0.37;;;14.40;99.90;;;;;;5013080;28;20908;-80
2021/10/05 12:02:18;;;;;;;0.30;0.30;;;14.40;99.90;;;;;;5013166;28;20439;-80
2021/10/05 12:04:47;;;;;;;0.50;0.30;;;14.50;99.90;;;;;;5013127;28;21017;-80
2021/10/05 12:07:18;;;;;;;0.30;0.30;;;14.50;99.90;;;;;;5013363;28;20438;-80
2021/10/05 12:09:47;;;;;;;0.40;0.30;;;14.60;99.90;;;;;;5013259;28;20448;-80
2021/10/05 12:12:15;;;;;;;0.50;0.43;;;14.80;99.90;;;;;;5013347;28;20442;-80
2021/10/05 12:14:44;;;;;;;0.40;0.30;;;14.90;99.90;;;;;;5013393;28;20424;-79
2021/10/05 12:17:14;;;;;;;0.30;0.30;;;15.10;99.90;;;;;;5013043;28;20942;-80
2021/10/05 12:19:46;;;;;;;0.60;0.40;;;15.10;99.90;;;;;;5013226;28;20447;-79
2021/10/05 12:22:20;;;;;;;0.50;0.33;;;15.10;99.90;;;;;;5014042;28;20797;-79
2021/10/05 12:24:49;;;;;;;0.40;0.30;;;15.00;99.90;;;;;;5016833;28;21040;-79
2021/10/05 12:27:19;;;;;;;0.30;0.30;;;14.90;99.90;;;;;;5016738;28;20809;-79
2021/10/05 12:29:49;;;;;;;0.40;0.30;;;14.90;99.90;;;;;;5016915;28;20431;-80
2021/10/05 12:32:16;;;;;;;0.30;0.30;;;14.80;99.90;;;;;;5016949;28;20436;-79
2021/10/05 12:34:49;;;;;;;0.40;0.30;;;14.80;99.90;;;;;;5016697;28;20788;-79
2021/10/05 12:37:19;;;;;;;0.30;0.30;;;14.70;99.90;;;;;;5016901;28;20454;-79
2021/10/05 12:39:58;;;;;;;0.30;0.30;;;14.90;99.90;;;;;;5016754;28;20494;-79
2021/10/05 12:42:36;;;;;;;0.30;0.30;;;14.90;99.90;;;;;;5016626;28;20509;-80
2021/10/05 12:45:10;;;;;;;0.30;0.30;;;15.00;99.90;;;;;;5014673;28;20553;-79
2021/10/05 12:47:37;;;;;;;0.30;0.30;;;15.00;99.90;;;;;;5016377;28;20920;-79
2021/10/05 12:50:04;;;;;;;0.30;0.30;;;15.00;99.90;;;;;;5016590;28;20474;-79
2021/10/05 12:52:33;;;;;;;0.40;0.30;;;15.10;99.90;;;;;;5016287;28;20903;-79
2021/10/05 12:55:00;;;;;;;0.30;0.30;;;15.20;99.90;;;;;;5016515;28;20428;-79